Impacts METAR Board
IDs:

KFLL - Ft Lauderdale-Hollyw, FL, US

Updated at: 2200 UTC 25 May 2018
Potential Impact None Slight Moderate High
Time 25/10Z 25/11Z 25/12Z 25/13Z 25/14Z 25/15Z 25/16Z 25/17Z 25/18Z 25/19Z 25/20Z 25/21Z 25/22Z
Temp77 77 79 80 81 81 78 77 80 77 77 73 75
Dewpt75 75 76 77 78 76 77 77 77 75 75 73 74
Altim29.97 29.98 29.99 30.00 30.01 30.01 30.00 30.00 29.99 29.99 29.97 29.97 29.96
VIS10 10 10 10 10 10 10 10 10 9 3 9
CIG-- 210 200 130 130 120 18 20 20 20 20 18 110
CoverSCTBKNBKNOVCOVCOVCOVCOVCOVCOVCOVCOVCOVC
FltCatVFRVFRVFRVFRVFRVFRMVFRMVFRMVFRMVFRMVFRVFR
WX---------------RA---RA-RA+RA BR-RA
WDir150130120130130120100901401702002000
WSpd13 6 10 12 13 15 17 12 15 9 11 9 0
WGst19 -- -- -- -- -- -- -- -- -- -- 20 --
Raw hourly METARs
KFLL 250953Z 15013G19KT 10SM FEW016CB FEW028 SCT033 25/24 A2997 RMK CB SE MOV NW
KFLL 251053Z 13006KT 10SM FEW018 SCT130 BKN210 25/24 A2998
KFLL 251153Z 12010KT 10SM FEW020 SCT130 BKN200 26/24 A2999 RMK AO2 SLP154 60004 70012 T02610244 10261 20244 53004
KFLL 251253Z 13012KT 10SM SCT018 SCT055 BKN130 OVC200 27/25 A3000 RMK AO2 RAB18E30 SLP159 P0003 T02670250
KFLL 251353Z 13013KT 10SM FEW018 FEW055 BKN130 OVC200 27/26 A3001 RMK AO2 RAB11E46 SLP161 P0004 T02720256
KFLL 251453Z 12015KT 10SM FEW020 SCT070 BKN120 OVC200 27/24 A3001 RMK AO2 SLP162 60007 T02720244 51008
KFLL 251553Z 10017KT 10SM BKN018 BKN070 BKN120 OVC200 26/25 A3000 RMK AO2 RAB05E33 SLP159 P0008 T02560250
KFLL 251653Z 09012KT 10SMSM -RA BKN020 BKN070 BKN120 OVC200 25/25 A3000 RMK AO2 RAB1554 SLP157 P0010 T02500250
KFLL 251753Z 14015KT 10SM BKN020 BKN075 BKN120 OVC200 27/25 A2999 RMK AO2 RAE1657 SLP154 P0000 60025 T02670250 10278 20250 57008
KFLL 251853Z 17009KT 10SM -RA BKN020 BKN070 OVC120 25/24 A2999 RMK AO2 LTG DSNT NW RAB32 SLP153 P0002 T02500239
KFLL 252000Z 20011KT 9SM -RA FEW016 BKN020 OVC100 25/24 A2997 RMK AO2 WSHFT 1944 RAB00 P0000 T02500239
KFLL 252053Z 20009G20KT 3SM R10L/2200VP6000FT +RA BR FEW006 BKN018 OVC028 23/23 A2997 RMK AO2 WSHFT 1944 RAB00 SLP149 P0025 60030 T02280228 50002
KFLL 252153Z 00000KT 9SM -RA SCT019 OVC110 24/23 A2996 RMK AO2 SLP146 P0007 T02390233



Page loaded:  22:34 UTC  |   03:34 PM Pacific  |   04:34 PM Mountain  |   05:34 PM Central  |   06:34 PM Eastern

 

ADVISORIES

FORECASTS

FORECASTS

OBSERVATIONS

USER TOOLS

ABOUT US